createdAt,value
2022-08-22T00:00:46.349Z,0.00
2022-08-22T00:01:46.344Z,0.00
2022-08-22T00:02:42.057Z,0.00
2022-08-22T00:02:45.443Z,0.00
2022-08-22T00:02:56.262Z,0.00
2022-08-22T00:02:58.483Z,0.00
2022-08-22T00:03:04.652Z,0.00
2022-08-22T00:03:07.041Z,0.00
2022-08-22T00:03:07.585Z,0.00
2022-08-22T00:03:15.659Z,0.00
2022-08-22T00:03:15.720Z,0.00
2022-08-22T00:03:15.839Z,0.00
2022-08-22T00:03:48.326Z,0.00
2022-08-22T00:04:46.375Z,0.00
2022-08-22T00:05:46.304Z,0.00
2022-08-22T00:06:46.297Z,0.00
2022-08-22T00:07:46.290Z,0.00
2022-08-22T00:08:46.311Z,0.00
2022-08-22T00:09:46.269Z,0.00
2022-08-22T00:10:46.263Z,0.00
2022-08-22T00:11:46.265Z,0.00
2022-08-22T00:12:46.243Z,0.00
2022-08-22T00:13:46.257Z,0.00
2022-08-22T00:14:46.229Z,0.00
2022-08-22T00:15:46.219Z,0.00
2022-08-22T00:16:46.212Z,0.00
2022-08-22T00:17:46.195Z,0.00
2022-08-22T00:18:46.235Z,0.00
2022-08-22T00:19:46.179Z,0.00
2022-08-22T00:20:46.179Z,0.00
2022-08-22T00:21:46.165Z,0.00
2022-08-22T00:22:46.161Z,0.00
2022-08-22T00:23:46.176Z,0.00
2022-08-22T00:24:46.140Z,0.00
2022-08-22T00:25:46.135Z,0.00
2022-08-22T00:26:46.120Z,0.00
2022-08-22T00:27:46.119Z,0.00
2022-08-22T00:28:46.136Z,0.00
2022-08-22T00:29:46.095Z,0.00
2022-08-22T00:30:46.083Z,0.00
2022-08-22T00:31:46.077Z,0.00
2022-08-22T00:32:46.095Z,0.00
2022-08-22T00:33:46.108Z,0.00
2022-08-22T00:34:46.052Z,0.00
2022-08-22T00:35:46.045Z,0.00
2022-08-22T00:36:47.733Z,0.00
2022-08-22T00:37:46.036Z,0.00
2022-08-22T00:38:46.049Z,0.00
2022-08-22T00:39:46.081Z,0.00
2022-08-22T00:40:46.000Z,0.00
2022-08-22T00:41:45.990Z,0.00
2022-08-22T00:42:45.988Z,0.00
2022-08-22T00:43:46.028Z,0.00
2022-08-22T00:44:45.996Z,0.00
2022-08-22T00:45:45.959Z,0.00
2022-08-22T00:46:45.948Z,0.00
2022-08-22T00:47:45.938Z,0.00
2022-08-22T00:48:45.934Z,0.00
2022-08-22T00:49:45.957Z,0.00
2022-08-22T00:50:45.914Z,0.00
2022-08-22T00:51:45.952Z,0.00
2022-08-22T00:52:45.895Z,0.00
2022-08-22T00:53:45.897Z,0.00
2022-08-22T00:54:45.913Z,0.00
2022-08-22T00:55:45.872Z,0.00
2022-08-22T00:56:46.006Z,0.00
2022-08-22T00:57:45.856Z,0.00
2022-08-22T00:58:45.877Z,0.00
2022-08-22T00:59:45.840Z,0.00
2022-08-22T01:00:45.833Z,0.00
2022-08-22T01:01:45.824Z,0.00
2022-08-22T01:02:50.437Z,0.00
2022-08-22T01:03:47.846Z,0.00
2022-08-22T01:04:45.813Z,0.00
2022-08-22T01:05:45.794Z,0.00
2022-08-22T01:06:45.780Z,0.00
2022-08-22T01:07:45.792Z,0.00
2022-08-22T01:08:45.793Z,0.00
2022-08-22T01:09:45.766Z,0.00
2022-08-22T01:10:45.749Z,0.00
2022-08-22T01:11:45.735Z,0.00
2022-08-22T01:12:45.732Z,0.00
2022-08-22T01:13:45.757Z,0.00
2022-08-22T01:14:45.718Z,0.00
2022-08-22T01:15:45.705Z,0.00
2022-08-22T01:16:45.694Z,0.00
2022-08-22T01:17:45.764Z,0.00
2022-08-22T01:18:45.723Z,0.00
2022-08-22T01:19:45.680Z,0.00
2022-08-22T01:20:45.669Z,0.00
2022-08-22T01:21:45.653Z,0.00
2022-08-22T01:22:45.655Z,0.00
2022-08-22T01:23:45.687Z,0.00
2022-08-22T01:24:45.625Z,0.00
2022-08-22T01:25:45.640Z,0.00
2022-08-22T01:26:45.622Z,0.00
2022-08-22T01:27:45.609Z,0.00
2022-08-22T01:28:45.633Z,0.00
2022-08-22T01:29:45.586Z,0.00
2022-08-22T01:30:45.583Z,0.00
2022-08-22T01:31:45.575Z,0.00
2022-08-22T01:32:45.561Z,0.00
2022-08-22T01:33:45.588Z,0.00
2022-08-22T01:34:45.543Z,0.00
2022-08-22T01:35:45.542Z,0.00
2022-08-22T01:36:45.531Z,0.00
2022-08-22T01:37:45.521Z,0.00
2022-08-22T01:38:45.543Z,0.00
2022-08-22T01:39:45.538Z,0.00
2022-08-22T01:40:53.559Z,0.00
2022-08-22T01:41:46.491Z,0.00
2022-08-22T01:42:45.480Z,0.00
2022-08-22T01:44:00.401Z,0.00
2022-08-22T01:44:46.498Z,0.00
2022-08-22T01:45:45.471Z,0.00
2022-08-22T01:46:45.452Z,0.00
2022-08-22T01:47:45.440Z,0.00
2022-08-22T01:48:45.429Z,0.00
2022-08-22T01:49:45.452Z,0.00
2022-08-22T01:50:45.418Z,0.00
2022-08-22T01:51:45.404Z,0.00
2022-08-22T01:52:45.397Z,0.00
2022-08-22T01:53:45.389Z,0.00
2022-08-22T01:54:45.400Z,0.00
2022-08-22T01:55:45.373Z,0.00
2022-08-22T01:56:45.365Z,0.00
2022-08-22T01:57:45.358Z,0.00
2022-08-22T01:58:45.351Z,0.00
2022-08-22T01:59:45.363Z,0.00
2022-08-22T02:00:45.355Z,0.00
2022-08-22T02:01:45.319Z,0.00
2022-08-22T02:02:45.310Z,0.00
2022-08-22T02:03:45.304Z,0.00
2022-08-22T02:04:45.331Z,0.00
2022-08-22T02:05:45.306Z,0.00
2022-08-22T02:06:45.276Z,0.00
2022-08-22T02:07:45.267Z,0.00
2022-08-22T02:08:45.264Z,0.00
2022-08-22T02:09:45.281Z,0.00
2022-08-22T02:10:45.244Z,0.00
2022-08-22T02:11:45.238Z,0.00
2022-08-22T02:12:45.222Z,0.00
2022-08-22T02:13:45.254Z,0.00
2022-08-22T02:14:45.209Z,0.00
2022-08-22T02:15:45.196Z,0.00
2022-08-22T02:16:45.206Z,0.00
2022-08-22T02:17:45.193Z,0.00
2022-08-22T02:18:45.172Z,0.00
2022-08-22T02:19:45.207Z,0.00
2022-08-22T02:20:45.158Z,0.00
2022-08-22T02:21:45.152Z,0.00
2022-08-22T02:22:45.133Z,0.00
2022-08-22T02:23:45.141Z,0.00
2022-08-22T02:24:45.153Z,0.00
2022-08-22T02:25:45.113Z,0.00
2022-08-22T02:26:45.103Z,0.00
2022-08-22T02:27:45.104Z,0.00
2022-08-22T02:28:57.479Z,0.00
2022-08-22T02:29:46.105Z,0.00
2022-08-22T02:30:45.076Z,0.00
2022-08-22T02:31:45.070Z,0.00
2022-08-22T02:32:45.052Z,0.00
2022-08-22T02:33:45.047Z,0.00
2022-08-22T02:34:45.069Z,0.00
2022-08-22T02:35:45.030Z,0.00
2022-08-22T02:36:45.025Z,0.00
2022-08-22T02:37:45.014Z,0.00
2022-08-22T02:38:45.023Z,0.00
2022-08-22T02:39:45.062Z,0.00
2022-08-22T02:40:44.981Z,0.00
2022-08-22T02:41:44.977Z,0.00
2022-08-22T02:42:44.971Z,0.00
2022-08-22T02:43:44.960Z,0.00
2022-08-22T02:44:44.984Z,0.00
2022-08-22T02:45:44.951Z,0.00
2022-08-22T02:46:44.938Z,0.00
2022-08-22T02:47:44.934Z,0.00
2022-08-22T02:48:44.924Z,0.00
2022-08-22T02:49:44.950Z,0.00
2022-08-22T02:50:44.910Z,0.00
2022-08-22T02:51:44.896Z,0.00
2022-08-22T02:52:44.891Z,0.00
2022-08-22T02:53:44.896Z,0.00
2022-08-22T02:54:44.891Z,0.00
2022-08-22T02:55:44.867Z,0.00
2022-08-22T02:56:44.857Z,0.00
2022-08-22T02:57:44.842Z,0.00
2022-08-22T02:58:44.843Z,0.00
2022-08-22T02:59:44.864Z,0.00
2022-08-22T03:00:44.866Z,0.00
2022-08-22T03:01:44.803Z,0.00
2022-08-22T03:02:44.802Z,0.00
2022-08-22T03:03:44.795Z,0.00
2022-08-22T03:04:44.813Z,0.00
2022-08-22T03:05:44.793Z,0.00
2022-08-22T03:07:03.755Z,0.00
2022-08-22T03:07:44.764Z,0.00
2022-08-22T03:08:51.026Z,0.00
2022-08-22T03:09:45.785Z,0.00
2022-08-22T03:10:44.743Z,0.00
2022-08-22T03:11:44.741Z,0.00
2022-08-22T03:12:44.727Z,0.00
2022-08-22T03:13:44.714Z,0.00
2022-08-22T03:14:44.743Z,0.00
2022-08-22T03:15:48.430Z,0.00
2022-08-22T03:16:44.693Z,0.00
2022-08-22T03:17:44.679Z,0.00
2022-08-22T03:18:45.361Z,0.00
2022-08-22T03:19:44.701Z,0.00
2022-08-22T03:20:44.663Z,0.00
2022-08-22T03:21:44.641Z,0.00
2022-08-22T03:22:44.644Z,0.00
2022-08-22T03:23:44.645Z,0.00
2022-08-22T03:24:44.668Z,0.00
2022-08-22T03:25:44.617Z,0.00
2022-08-22T03:26:44.623Z,0.00
2022-08-22T03:27:47.177Z,0.00
2022-08-22T03:28:59.207Z,0.00
2022-08-22T03:29:45.620Z,0.00
2022-08-22T03:30:44.573Z,0.00
2022-08-22T03:31:44.563Z,0.00
2022-08-22T03:32:44.554Z,0.00
2022-08-22T03:33:44.542Z,0.00
2022-08-22T03:34:44.545Z,0.00
2022-08-22T03:35:44.560Z,0.00
2022-08-22T03:36:44.526Z,0.00
2022-08-22T03:37:44.514Z,0.00
2022-08-22T03:38:44.514Z,0.00
2022-08-22T03:39:44.513Z,0.00
2022-08-22T03:40:44.520Z,0.00
2022-08-22T03:41:44.479Z,0.00
2022-08-22T03:42:44.471Z,0.00
2022-08-22T03:43:44.454Z,0.00
2022-08-22T03:44:44.451Z,0.00
2022-08-22T03:45:44.471Z,0.00
2022-08-22T03:46:44.447Z,0.00
2022-08-22T03:47:45.423Z,0.00
2022-08-22T03:49:03.297Z,0.00
2022-08-22T03:49:46.962Z,0.00
2022-08-22T03:50:45.431Z,0.00
2022-08-22T03:51:44.394Z,0.00
2022-08-22T03:52:44.386Z,0.00
2022-08-22T03:53:44.374Z,0.00
2022-08-22T03:54:44.368Z,0.00
2022-08-22T03:55:44.399Z,0.00
2022-08-22T03:56:44.345Z,0.00
2022-08-22T03:57:44.347Z,0.00
2022-08-22T03:58:44.332Z,0.00
2022-08-22T03:59:44.319Z,0.00
2022-08-22T04:00:44.399Z,0.00
2022-08-22T04:01:44.306Z,0.00
2022-08-22T04:02:44.453Z,0.00
2022-08-22T04:03:45.282Z,0.00
2022-08-22T04:04:44.277Z,0.00
2022-08-22T04:05:44.291Z,0.00
2022-08-22T04:06:44.256Z,0.00
2022-08-22T04:07:44.252Z,0.00
2022-08-22T04:08:44.772Z,0.00
2022-08-22T04:09:44.228Z,0.00
2022-08-22T04:10:44.265Z,0.00
2022-08-22T04:11:44.216Z,5.62
2022-08-22T04:12:44.216Z,5.62
2022-08-22T04:13:44.197Z,5.62
2022-08-22T04:14:44.187Z,5.62
2022-08-22T04:15:44.209Z,5.62
2022-08-22T04:16:44.170Z,5.62
2022-08-22T04:17:44.159Z,5.62
2022-08-22T04:18:44.154Z,5.62
2022-08-22T04:19:44.156Z,11.25
2022-08-22T04:20:44.169Z,11.25
2022-08-22T04:21:44.131Z,11.25
2022-08-22T04:22:44.121Z,11.25
2022-08-22T04:23:44.114Z,11.25
2022-08-22T04:24:44.107Z,16.88
2022-08-22T04:25:44.138Z,16.88
2022-08-22T04:26:44.104Z,16.88
2022-08-22T04:27:44.098Z,16.88
2022-08-22T04:28:44.075Z,22.50
2022-08-22T04:29:44.063Z,22.50
2022-08-22T04:30:44.095Z,22.50
2022-08-22T04:31:44.049Z,28.12
2022-08-22T04:32:44.042Z,28.12
2022-08-22T04:33:44.039Z,28.12
2022-08-22T04:34:44.023Z,33.75
2022-08-22T04:35:44.037Z,33.75
2022-08-22T04:36:44.012Z,33.75
2022-08-22T04:37:43.994Z,39.38
2022-08-22T04:38:43.988Z,39.38
2022-08-22T04:39:44.041Z,39.38
2022-08-22T04:40:43.999Z,45.00
2022-08-22T04:41:43.965Z,50.62
2022-08-22T04:42:43.957Z,50.62
2022-08-22T04:43:43.950Z,56.25
2022-08-22T04:44:43.934Z,61.88
2022-08-22T04:45:43.975Z,61.88
2022-08-22T04:46:43.926Z,67.50
2022-08-22T04:47:43.914Z,73.12
2022-08-22T04:48:43.906Z,78.75
2022-08-22T04:49:43.898Z,84.38
2022-08-22T04:50:43.919Z,90.00
2022-08-22T04:51:43.885Z,95.62
2022-08-22T04:52:43.889Z,101.25
2022-08-22T04:53:43.862Z,106.88
2022-08-22T04:54:44.549Z,112.50
2022-08-22T04:55:43.893Z,118.12
2022-08-22T04:56:43.833Z,118.12
2022-08-22T04:57:43.825Z,123.75
2022-08-22T04:58:43.838Z,129.38
2022-08-22T04:59:43.828Z,135.00
2022-08-22T05:00:43.845Z,140.62
2022-08-22T05:01:43.821Z,146.25
2022-08-22T05:02:43.789Z,151.88
2022-08-22T05:03:45.035Z,157.50
2022-08-22T05:04:44.781Z,163.12
2022-08-22T05:05:43.765Z,168.75
2022-08-22T05:06:43.769Z,174.38
2022-08-22T05:07:44.749Z,180.00
2022-08-22T05:08:43.735Z,191.25
2022-08-22T05:09:43.731Z,196.88
2022-08-22T05:10:43.723Z,208.12
2022-08-22T05:11:43.740Z,208.12
2022-08-22T05:12:43.713Z,213.75
2022-08-22T05:13:43.698Z,219.38
2022-08-22T05:14:43.687Z,225.00
2022-08-22T05:15:43.672Z,230.62
2022-08-22T05:16:43.698Z,230.62
2022-08-22T05:17:43.661Z,236.25
2022-08-22T05:18:43.651Z,241.88
2022-08-22T05:19:43.642Z,247.50
2022-08-22T05:20:43.637Z,253.12
2022-08-22T05:21:43.658Z,258.75
2022-08-22T05:22:43.620Z,258.75
2022-08-22T05:23:43.621Z,264.38
2022-08-22T05:24:43.599Z,264.38
2022-08-22T05:25:43.597Z,275.62
2022-08-22T05:26:43.610Z,286.88
2022-08-22T05:27:43.576Z,292.50
2022-08-22T05:28:43.587Z,298.12
2022-08-22T05:29:43.555Z,303.75
2022-08-22T05:30:43.560Z,309.38
2022-08-22T05:31:43.570Z,309.38
2022-08-22T05:32:43.533Z,281.25
2022-08-22T05:33:43.529Z,315.00
2022-08-22T05:34:43.514Z,331.88
2022-08-22T05:35:47.260Z,337.50
2022-08-22T05:36:45.612Z,348.75
2022-08-22T05:37:43.498Z,354.38
2022-08-22T05:38:43.495Z,360.00
2022-08-22T05:39:43.536Z,371.25
2022-08-22T05:40:43.460Z,376.88
2022-08-22T05:41:43.487Z,382.50
2022-08-22T05:42:43.448Z,393.75
2022-08-22T05:43:43.438Z,399.38
2022-08-22T05:44:43.431Z,399.38
2022-08-22T05:45:43.423Z,410.62
2022-08-22T05:46:43.450Z,421.88
2022-08-22T05:47:43.406Z,433.12
2022-08-22T05:48:43.649Z,444.38
2022-08-22T05:49:43.388Z,455.62
2022-08-22T05:50:43.384Z,455.62
2022-08-22T05:51:43.400Z,461.25
2022-08-22T05:52:43.358Z,466.88
2022-08-22T05:53:43.359Z,472.50
2022-08-22T05:54:43.346Z,478.12
2022-08-22T05:55:43.395Z,483.75
2022-08-22T05:56:43.358Z,489.38
2022-08-22T05:57:43.317Z,495.00
2022-08-22T05:58:43.323Z,500.62
2022-08-22T05:59:43.309Z,500.62
2022-08-22T06:00:43.301Z,506.25
2022-08-22T06:01:43.364Z,511.88
2022-08-22T06:02:43.285Z,523.12
2022-08-22T06:03:43.258Z,528.75
2022-08-22T06:04:44.264Z,534.38
2022-08-22T06:05:43.265Z,540.00
2022-08-22T06:06:43.273Z,545.62
2022-08-22T06:07:43.259Z,556.88
2022-08-22T06:08:43.227Z,562.50
2022-08-22T06:09:43.227Z,573.75
2022-08-22T06:10:43.218Z,579.38
2022-08-22T06:11:44.845Z,585.00
2022-08-22T06:12:44.204Z,596.25
2022-08-22T06:13:43.210Z,607.50
2022-08-22T06:14:43.176Z,613.12
2022-08-22T06:15:43.174Z,618.75
2022-08-22T06:16:47.513Z,624.38
2022-08-22T06:17:44.156Z,630.00
2022-08-22T06:18:43.148Z,635.62
2022-08-22T06:19:43.152Z,635.62
2022-08-22T06:20:43.130Z,646.88
2022-08-22T06:21:43.157Z,652.50
2022-08-22T06:22:43.112Z,663.75
2022-08-22T06:23:43.106Z,669.38
2022-08-22T06:24:43.099Z,680.62
2022-08-22T06:25:43.086Z,686.25
2022-08-22T06:26:45.234Z,697.50
2022-08-22T06:27:44.099Z,708.75
2022-08-22T06:28:55.242Z,720.00
2022-08-22T06:29:44.055Z,731.25
2022-08-22T06:30:43.058Z,736.88
2022-08-22T06:31:43.067Z,748.12
2022-08-22T06:32:59.148Z,759.38
2022-08-22T06:33:45.872Z,770.62
2022-08-22T06:34:44.016Z,776.25
2022-08-22T06:35:43.010Z,793.12
2022-08-22T06:37:01.485Z,804.38
2022-08-22T06:37:46.915Z,815.62
2022-08-22T06:38:42.975Z,815.62
2022-08-22T06:39:43.000Z,821.25
2022-08-22T06:40:47.433Z,821.25
2022-08-22T06:41:42.988Z,815.62
2022-08-22T06:42:42.995Z,815.62
2022-08-22T06:43:42.956Z,810.00
2022-08-22T06:44:42.950Z,815.62
2022-08-22T06:45:42.926Z,821.25
2022-08-22T06:46:42.947Z,821.25
2022-08-22T06:47:43.475Z,826.88
2022-08-22T06:48:43.899Z,832.50
2022-08-22T06:49:42.895Z,832.50
2022-08-22T06:50:42.890Z,838.12
2022-08-22T06:51:42.910Z,849.38
2022-08-22T06:52:42.866Z,855.00
2022-08-22T06:53:47.921Z,866.25
2022-08-22T06:54:43.849Z,877.50
2022-08-22T06:55:42.847Z,883.12
2022-08-22T06:56:42.878Z,888.75
2022-08-22T06:57:42.837Z,900.00
2022-08-22T06:58:42.829Z,916.88
2022-08-22T06:59:42.821Z,928.12
2022-08-22T07:00:42.819Z,945.00
2022-08-22T07:01:42.889Z,967.50
2022-08-22T07:02:42.805Z,990.00
2022-08-22T07:03:42.785Z,1023.75
2022-08-22T07:04:42.784Z,1057.50
2022-08-22T07:05:42.767Z,1091.25
2022-08-22T07:06:42.791Z,1130.62
2022-08-22T07:07:42.765Z,1186.88
2022-08-22T07:08:42.743Z,1243.12
2022-08-22T07:09:42.743Z,1288.12
2022-08-22T07:10:42.726Z,1372.50
2022-08-22T07:11:42.754Z,1485.00
2022-08-22T07:12:42.716Z,1665.00
2022-08-22T07:13:42.704Z,1940.62
2022-08-22T07:14:42.701Z,2278.12
2022-08-22T07:15:42.694Z,2559.38
2022-08-22T07:16:42.745Z,2970.00
2022-08-22T07:17:42.666Z,3796.88
2022-08-22T07:18:42.670Z,4713.75
2022-08-22T07:19:42.670Z,4342.50
2022-08-22T07:20:42.666Z,3346.88
2022-08-22T07:21:42.679Z,2925.00
2022-08-22T07:22:42.634Z,2728.12
2022-08-22T07:23:42.622Z,2576.25
2022-08-22T07:24:42.612Z,2458.12
2022-08-22T07:25:42.610Z,2334.38
2022-08-22T07:26:42.599Z,2227.50
2022-08-22T07:27:42.628Z,2148.75
2022-08-22T07:28:51.528Z,1991.25
2022-08-22T07:29:43.577Z,1861.88
2022-08-22T07:30:42.578Z,1794.38
2022-08-22T07:31:42.596Z,1766.25
2022-08-22T07:32:42.569Z,1732.50
2022-08-22T07:33:42.554Z,1687.50
2022-08-22T07:34:42.545Z,1693.12
2022-08-22T07:35:42.553Z,1659.38
2022-08-22T07:36:43.557Z,1591.88
2022-08-22T07:37:42.514Z,1608.75
2022-08-22T07:38:42.506Z,1614.38
2022-08-22T07:39:42.536Z,1597.50
2022-08-22T07:40:42.487Z,1620.00
2022-08-22T07:41:42.502Z,1631.25
2022-08-22T07:42:42.503Z,1586.25
2022-08-22T07:43:42.469Z,1524.38
2022-08-22T07:44:42.463Z,1563.75
2022-08-22T07:45:42.447Z,1603.12
2022-08-22T07:46:42.457Z,1608.75
2022-08-22T07:47:42.479Z,1603.12
2022-08-22T07:49:05.934Z,1648.12
2022-08-22T07:49:49.792Z,1676.25
2022-08-22T07:50:43.413Z,1653.75
2022-08-22T07:51:42.399Z,1659.38
2022-08-22T07:52:42.428Z,1721.25
2022-08-22T07:53:42.396Z,1783.12
2022-08-22T07:54:42.378Z,1788.75
2022-08-22T07:55:49.728Z,1816.88
2022-08-22T07:56:43.368Z,1845.00
2022-08-22T07:57:42.386Z,1822.50
2022-08-22T07:58:42.352Z,1828.12
2022-08-22T07:59:42.339Z,1850.62
2022-08-22T08:00:42.331Z,1816.88
2022-08-22T08:01:42.369Z,1766.25
2022-08-22T08:02:42.348Z,1766.25
2022-08-22T08:03:42.423Z,1800.00
2022-08-22T08:04:42.307Z,1833.75
2022-08-22T08:05:42.299Z,1878.75
2022-08-22T08:06:42.295Z,1963.12
2022-08-22T08:07:42.324Z,1991.25
2022-08-22T08:08:42.283Z,1940.62
2022-08-22T08:09:42.271Z,1940.62
2022-08-22T08:10:42.266Z,1991.25
2022-08-22T08:11:42.257Z,2148.75
2022-08-22T08:12:42.292Z,2250.00
2022-08-22T08:13:42.243Z,2176.88
2022-08-22T08:14:42.234Z,1985.62
2022-08-22T08:15:42.230Z,1822.50
2022-08-22T08:16:42.222Z,1698.75
2022-08-22T08:17:42.235Z,1642.50
2022-08-22T08:18:42.192Z,1620.00
2022-08-22T08:19:42.194Z,1580.62
2022-08-22T08:20:42.185Z,1558.12
2022-08-22T08:21:42.179Z,1546.88
2022-08-22T08:22:42.209Z,1552.50
2022-08-22T08:23:42.229Z,1580.62
2022-08-22T08:24:42.491Z,1721.25
2022-08-22T08:25:42.151Z,2430.00
2022-08-22T08:26:42.145Z,3211.88
2022-08-22T08:27:42.176Z,3487.50
2022-08-22T08:28:42.134Z,3470.62
2022-08-22T08:29:42.123Z,3481.88
2022-08-22T08:30:42.115Z,3526.88
2022-08-22T08:31:43.176Z,3583.12
2022-08-22T08:32:42.128Z,3633.75
2022-08-22T08:33:42.111Z,3532.50
2022-08-22T08:34:42.083Z,3510.00
2022-08-22T08:35:51.949Z,3481.88
2022-08-22T08:36:43.088Z,3481.88
2022-08-22T08:37:42.101Z,3571.88
2022-08-22T08:38:42.072Z,3667.50
2022-08-22T08:39:42.083Z,3757.50
2022-08-22T08:40:42.042Z,3690.00
2022-08-22T08:41:42.038Z,3757.50
2022-08-22T08:42:42.057Z,3706.88
2022-08-22T08:43:42.041Z,3723.75
2022-08-22T08:44:42.016Z,3785.62
2022-08-22T08:45:42.007Z,3650.62
2022-08-22T08:46:41.997Z,3757.50
2022-08-22T08:47:43.029Z,3735.00
2022-08-22T08:48:42.025Z,3768.75
2022-08-22T08:50:43.301Z,3723.75
2022-08-22T08:51:41.965Z,3768.75
2022-08-22T08:52:41.994Z,3819.38
2022-08-22T08:53:43.356Z,3813.75
2022-08-22T08:54:41.946Z,3785.62
2022-08-22T08:55:41.940Z,3757.50
2022-08-22T08:56:47.118Z,3757.50
2022-08-22T08:57:42.951Z,3723.75
2022-08-22T08:58:41.916Z,3723.75
2022-08-22T08:59:44.483Z,3684.38
2022-08-22T09:00:41.905Z,3639.38
2022-08-22T09:01:41.981Z,3645.00
2022-08-22T09:02:42.479Z,3701.25
2022-08-22T09:03:41.957Z,3723.75
2022-08-22T09:04:41.872Z,3723.75
2022-08-22T09:05:41.887Z,3661.88
2022-08-22T09:06:42.411Z,3684.38
2022-08-22T09:07:41.896Z,3645.00
2022-08-22T09:08:41.847Z,3706.88
2022-08-22T09:09:41.840Z,3690.00
2022-08-22T09:10:41.840Z,3605.62
2022-08-22T09:11:41.840Z,3577.50
2022-08-22T09:12:56.041Z,3594.38
2022-08-22T09:13:42.821Z,3616.88
2022-08-22T09:14:41.809Z,3616.88
2022-08-22T09:15:41.800Z,3633.75
2022-08-22T09:16:45.071Z,3656.25
2022-08-22T09:17:42.827Z,3650.62
2022-08-22T09:18:41.785Z,3583.12
2022-08-22T09:19:41.773Z,3633.75
2022-08-22T09:20:41.784Z,3645.00
2022-08-22T09:21:41.761Z,3656.25
2022-08-22T09:22:50.215Z,3616.88
2022-08-22T09:23:43.246Z,3695.62
2022-08-22T09:24:41.743Z,3628.12
2022-08-22T09:25:41.742Z,3571.88
2022-08-22T09:26:41.734Z,3611.25
2022-08-22T09:27:41.761Z,3645.00
2022-08-22T09:28:41.722Z,3667.50
2022-08-22T09:29:55.191Z,3723.75
2022-08-22T09:30:42.707Z,3740.62
2022-08-22T09:31:48.087Z,3661.88
2022-08-22T09:32:42.717Z,3656.25
2022-08-22T09:33:41.683Z,3729.38
2022-08-22T09:34:41.687Z,3706.88
2022-08-22T09:35:41.680Z,3690.00
2022-08-22T09:36:41.680Z,3673.12
2022-08-22T09:38:09.654Z,3678.75
2022-08-22T09:38:47.789Z,3633.75
2022-08-22T09:39:42.683Z,3633.75
2022-08-22T09:40:16.433Z,3757.50
2022-08-22T09:40:41.669Z,3616.88
2022-08-22T09:41:41.644Z,3661.88
2022-08-22T09:42:45.015Z,3549.38
2022-08-22T09:43:45.023Z,3583.12
2022-08-22T09:44:42.620Z,3633.75
2022-08-22T09:45:42.929Z,3723.75
2022-08-22T09:46:41.610Z,3729.38
2022-08-22T09:47:41.630Z,3706.88
2022-08-22T09:48:42.499Z,3706.88
2022-08-22T09:49:41.595Z,3645.00
2022-08-22T09:50:41.583Z,3600.00
2022-08-22T09:51:41.589Z,3622.50
2022-08-22T09:52:41.610Z,3667.50
2022-08-22T09:53:41.568Z,3656.25
2022-08-22T09:54:41.559Z,3673.12
2022-08-22T09:55:41.560Z,3645.00
2022-08-22T09:56:41.554Z,3667.50
2022-08-22T09:57:41.590Z,3780.00
2022-08-22T09:58:41.885Z,3802.50
2022-08-22T09:59:41.553Z,3751.88
2022-08-22T10:00:41.560Z,3690.00
2022-08-22T10:01:42.391Z,3684.38
2022-08-22T10:02:43.320Z,3701.25
2022-08-22T10:03:41.511Z,3729.38
2022-08-22T10:04:42.034Z,3673.12
2022-08-22T10:05:44.257Z,3560.62
2022-08-22T10:06:42.496Z,3352.50
2022-08-22T10:07:41.514Z,3262.50
2022-08-22T10:08:41.485Z,3420.00
2022-08-22T10:09:41.478Z,3504.38
2022-08-22T10:10:41.464Z,3493.12
2022-08-22T10:11:42.218Z,3470.62
2022-08-22T10:12:41.477Z,3487.50
2022-08-22T10:13:41.449Z,3515.62
2022-08-22T10:14:41.441Z,3532.50
2022-08-22T10:15:42.430Z,3549.38
2022-08-22T10:16:41.426Z,3510.00
2022-08-22T10:17:41.473Z,3549.38
2022-08-22T10:18:52.522Z,3555.00
2022-08-22T10:19:42.404Z,3560.62
2022-08-22T10:20:41.402Z,3583.12
2022-08-22T10:21:41.399Z,3611.25
2022-08-22T10:22:41.419Z,3245.62
2022-08-22T10:23:41.382Z,3234.38
2022-08-22T10:24:43.794Z,3560.62
2022-08-22T10:25:42.255Z,3560.62
2022-08-22T10:26:41.367Z,3583.12
2022-08-22T10:27:41.389Z,2075.62
2022-08-22T10:28:41.353Z,849.38
2022-08-22T10:29:41.355Z,798.75
2022-08-22T10:30:41.356Z,826.88
2022-08-22T10:31:45.088Z,1001.25
2022-08-22T10:32:43.356Z,3566.25
2022-08-22T10:33:41.322Z,3555.00
2022-08-22T10:34:41.326Z,3515.62
2022-08-22T10:35:41.311Z,3588.75
2022-08-22T10:36:41.300Z,2806.88
2022-08-22T10:37:45.991Z,3521.25
2022-08-22T10:38:46.319Z,866.25
2022-08-22T10:39:41.350Z,826.88
2022-08-22T10:40:41.285Z,1473.75
2022-08-22T10:41:41.271Z,821.25
2022-08-22T10:42:41.739Z,742.50
2022-08-22T10:43:41.263Z,720.00
2022-08-22T10:44:41.257Z,708.75
2022-08-22T10:45:41.250Z,708.75
2022-08-22T10:46:42.278Z,736.88
2022-08-22T10:47:42.264Z,720.00
2022-08-22T10:48:41.225Z,748.12
2022-08-22T10:49:41.232Z,894.38
2022-08-22T10:50:41.210Z,1490.62
2022-08-22T10:51:41.210Z,2784.38
2022-08-22T10:52:41.227Z,3335.62
2022-08-22T10:53:41.190Z,3155.62
2022-08-22T10:54:41.193Z,3234.38
2022-08-22T10:55:41.175Z,3065.62
2022-08-22T10:56:41.170Z,3082.50
2022-08-22T10:57:41.199Z,2593.12
2022-08-22T10:58:41.174Z,3037.50
2022-08-22T10:59:41.155Z,2970.00
2022-08-22T11:00:46.208Z,2733.75
2022-08-22T11:01:42.412Z,3335.62
2022-08-22T11:02:42.326Z,3262.50
2022-08-22T11:03:41.125Z,3172.50
2022-08-22T11:04:41.134Z,3301.88
2022-08-22T11:05:41.115Z,3279.38
2022-08-22T11:06:41.103Z,3093.75
2022-08-22T11:07:41.395Z,3110.62
2022-08-22T11:08:41.103Z,3324.38
2022-08-22T11:09:41.090Z,3335.62
2022-08-22T11:10:41.077Z,3290.62
2022-08-22T11:11:41.074Z,3346.88
2022-08-22T11:12:41.668Z,3386.25
2022-08-22T11:13:43.365Z,3391.88
2022-08-22T11:14:41.044Z,3380.62
2022-08-22T11:15:41.048Z,3403.12
2022-08-22T11:16:41.777Z,3391.88
2022-08-22T11:17:44.774Z,3268.12
2022-08-22T11:18:43.016Z,3166.88
2022-08-22T11:19:42.018Z,3144.38
2022-08-22T11:20:41.015Z,3155.62
2022-08-22T11:21:41.005Z,3211.88
2022-08-22T11:22:41.037Z,3268.12
2022-08-22T11:23:40.996Z,3420.00
2022-08-22T11:24:55.946Z,3397.50
2022-08-22T11:25:41.985Z,3391.88
2022-08-22T11:26:47.741Z,3481.88
2022-08-22T11:27:43.002Z,3448.12
2022-08-22T11:28:40.972Z,3408.75
2022-08-22T11:29:41.210Z,3369.38
2022-08-22T11:30:45.207Z,3273.75
2022-08-22T11:31:43.479Z,3285.00
2022-08-22T11:32:41.967Z,3155.62
2022-08-22T11:33:46.909Z,714.38
2022-08-22T11:34:41.940Z,703.12
2022-08-22T11:35:40.926Z,742.50
2022-08-22T11:36:40.917Z,911.25
2022-08-22T11:37:42.899Z,1580.62
2022-08-22T11:38:40.907Z,3386.25
2022-08-22T11:39:40.962Z,3290.62
2022-08-22T11:40:41.890Z,855.00
2022-08-22T11:41:40.892Z,781.88
2022-08-22T11:42:47.426Z,984.38
2022-08-22T11:43:41.865Z,3268.12
2022-08-22T11:44:50.513Z,3217.50
2022-08-22T11:45:41.851Z,3105.00
2022-08-22T11:46:40.859Z,3043.12
2022-08-22T11:47:40.870Z,3037.50
2022-08-22T11:48:40.849Z,2925.00
2022-08-22T11:49:41.838Z,2851.88
2022-08-22T11:50:42.217Z,2902.50
2022-08-22T11:51:40.856Z,2896.88
2022-08-22T11:52:40.823Z,2874.38
2022-08-22T11:53:40.830Z,2790.00
2022-08-22T11:54:42.247Z,2700.00
2022-08-22T11:55:40.798Z,2745.00
2022-08-22T11:56:41.615Z,2722.50
2022-08-22T11:57:44.208Z,2593.12
2022-08-22T11:58:40.774Z,2497.50
2022-08-22T11:59:40.771Z,2548.12
2022-08-22T12:00:40.769Z,2576.25
2022-08-22T12:01:40.843Z,2053.12
2022-08-22T12:02:40.847Z,1355.62
2022-08-22T12:03:40.741Z,1276.88
2022-08-22T12:04:43.994Z,1237.50
2022-08-22T12:05:40.739Z,1220.62
2022-08-22T12:06:40.754Z,1209.38
2022-08-22T12:07:40.717Z,1198.12
2022-08-22T12:08:40.720Z,1192.50
2022-08-22T12:09:40.695Z,1186.88
2022-08-22T12:10:40.689Z,1181.25
2022-08-22T12:11:40.692Z,1181.25
2022-08-22T12:12:42.272Z,1181.25
2022-08-22T12:13:40.677Z,1186.88
2022-08-22T12:14:40.671Z,1186.88
2022-08-22T12:15:40.659Z,1186.88
2022-08-22T12:16:40.656Z,1175.62
2022-08-22T12:17:55.364Z,1158.75
2022-08-22T12:18:41.643Z,1158.75
2022-08-22T12:20:05.779Z,1158.75
2022-08-22T12:20:45.418Z,1153.12
2022-08-22T12:21:40.654Z,1147.50
2022-08-22T12:22:40.622Z,1153.12
2022-08-22T12:23:49.725Z,1141.88
2022-08-22T12:24:41.603Z,1136.25
2022-08-22T12:25:44.651Z,1130.62
2022-08-22T12:26:40.732Z,1130.62
2022-08-22T12:27:40.587Z,1125.00